createdAt,value
2022-11-01T00:01:40.451Z,17.23
2022-11-01T00:04:09.839Z,17.93
2022-11-01T00:06:37.658Z,16.67
2022-11-01T00:09:06.813Z,19.23
2022-11-01T00:11:34.558Z,20.77
2022-11-01T00:14:02.236Z,19.70
2022-11-01T00:16:30.443Z,19.73
2022-11-01T00:18:58.443Z,22.90
2022-11-01T00:21:27.527Z,16.53
2022-11-01T00:23:55.421Z,21.47
2022-11-01T00:26:24.902Z,17.87
2022-11-01T00:28:53.069Z,18.03
2022-11-01T00:31:21.481Z,21.67
2022-11-01T00:33:49.266Z,16.00
2022-11-01T00:36:17.258Z,18.17
2022-11-01T00:38:46.377Z,19.23
2022-11-01T00:41:15.638Z,17.77
2022-11-01T00:43:43.456Z,17.93
2022-11-01T00:46:11.346Z,16.20
2022-11-01T00:48:39.069Z,14.43
2022-11-01T00:51:06.910Z,17.33
2022-11-01T00:53:34.629Z,17.67
2022-11-01T00:56:04.850Z,17.10
2022-11-01T00:58:32.721Z,18.43
2022-11-01T01:01:00.608Z,16.03
2022-11-01T01:03:28.298Z,23.80
2022-11-01T01:05:56.138Z,21.17
2022-11-01T01:08:24.224Z,19.53
2022-11-01T01:10:52.009Z,20.30
2022-11-01T01:13:21.456Z,16.60
2022-11-01T01:15:49.207Z,17.73
2022-11-01T01:18:17.185Z,16.57
2022-11-01T01:20:45.072Z,20.43
2022-11-01T01:23:12.690Z,20.03
2022-11-01T01:25:41.338Z,19.97
2022-11-01T01:28:09.220Z,18.83
2022-11-01T01:30:40.878Z,17.53
2022-11-01T01:33:08.670Z,18.83
2022-11-01T01:35:36.393Z,19.40
2022-11-01T01:38:04.596Z,17.50
2022-11-01T01:40:33.109Z,18.83
2022-11-01T01:43:00.748Z,15.47
2022-11-01T01:45:35.235Z,14.80
2022-11-01T01:48:16.522Z,14.50
2022-11-01T01:50:47.793Z,18.00
2022-11-01T01:53:19.579Z,22.10
2022-11-01T01:55:52.084Z,20.27
2022-11-01T01:58:21.767Z,22.50
2022-11-01T02:00:49.773Z,17.80
2022-11-01T02:03:19.576Z,17.27
2022-11-01T02:05:50.736Z,16.67
2022-11-01T02:08:26.696Z,25.27
2022-11-01T02:10:55.348Z,19.33
2022-11-01T02:13:23.496Z,21.63
2022-11-01T02:16:03.633Z,20.53
2022-11-01T02:18:37.209Z,18.43
2022-11-01T02:21:29.134Z,21.77
2022-11-01T02:24:16.667Z,16.13
2022-11-01T02:27:01.432Z,20.13
2022-11-01T02:30:13.513Z,22.80
2022-11-01T02:32:52.371Z,21.80
2022-11-01T02:35:25.002Z,18.57
2022-11-01T02:37:55.902Z,20.53
2022-11-01T02:40:29.141Z,17.30
2022-11-01T02:43:00.194Z,16.07
2022-11-01T02:45:33.515Z,20.10
2022-11-01T02:48:03.587Z,16.13
2022-11-01T02:50:34.708Z,15.23
2022-11-01T02:53:02.997Z,20.63
2022-11-01T02:55:31.020Z,16.93
2022-11-01T02:58:00.696Z,16.13
2022-11-01T03:00:30.285Z,16.10
2022-11-01T03:03:04.174Z,12.97
2022-11-01T03:05:38.461Z,15.00
2022-11-01T03:08:08.599Z,20.57
2022-11-01T03:10:43.073Z,15.97
2022-11-01T03:13:17.792Z,13.30
2022-11-01T03:15:53.752Z,14.27
2022-11-01T03:18:28.457Z,14.30
2022-11-01T03:21:00.692Z,19.90
2022-11-01T03:23:45.027Z,16.23
2022-11-01T03:26:15.164Z,15.40
2022-11-01T03:28:45.914Z,17.43
2022-11-01T03:31:15.160Z,14.23
2022-11-01T03:33:46.679Z,19.53
2022-11-01T03:36:18.009Z,15.87
2022-11-01T03:38:50.512Z,17.90
2022-11-01T03:41:19.481Z,12.57
2022-11-01T03:43:48.009Z,11.23
2022-11-01T03:46:16.479Z,15.00
2022-11-01T03:48:45.454Z,14.37
2022-11-01T03:51:13.934Z,15.50
2022-11-01T03:53:41.488Z,19.10
2022-11-01T03:56:09.748Z,15.47
2022-11-01T03:58:44.053Z,16.20
2022-11-01T04:01:13.048Z,14.50
2022-11-01T04:03:40.744Z,13.40
2022-11-01T04:06:09.981Z,13.50
2022-11-01T04:08:37.849Z,16.10
2022-11-01T04:11:05.853Z,14.13
2022-11-01T04:13:33.496Z,14.73
2022-11-01T04:16:18.054Z,13.13
2022-11-01T04:19:08.619Z,14.53
2022-11-01T04:21:37.604Z,16.50
2022-11-01T04:24:05.414Z,17.27
2022-11-01T04:26:33.141Z,17.60
2022-11-01T04:29:00.679Z,18.43
2022-11-01T04:31:29.339Z,17.83
2022-11-01T04:33:57.806Z,10.63
2022-11-01T04:36:25.906Z,12.17
2022-11-01T04:38:56.597Z,13.80
2022-11-01T04:41:25.469Z,14.33
2022-11-01T04:43:54.582Z,10.87
2022-11-01T04:46:22.265Z,11.40
2022-11-01T04:48:50.022Z,12.33
2022-11-01T04:51:17.691Z,11.30
2022-11-01T04:53:45.273Z,13.43
2022-11-01T04:56:14.654Z,16.83
2022-11-01T04:58:45.960Z,10.93
2022-11-01T05:01:15.457Z,10.23
2022-11-01T05:03:43.522Z,7.80
2022-11-01T05:06:11.234Z,11.20
2022-11-01T05:08:38.880Z,8.90
2022-11-01T05:11:06.813Z,9.67
2022-11-01T05:13:35.990Z,8.83
2022-11-01T05:16:20.946Z,9.63
2022-11-01T05:18:48.898Z,6.40
2022-11-01T05:21:16.498Z,10.63
2022-11-01T05:23:44.102Z,7.27
2022-11-01T05:26:11.712Z,11.40
2022-11-01T05:28:40.640Z,8.57
2022-11-01T05:31:08.334Z,9.03
2022-11-01T05:33:35.899Z,11.00
2022-11-01T05:36:03.456Z,7.10
2022-11-01T05:38:31.022Z,7.73
2022-11-01T05:40:58.644Z,6.73
2022-11-01T05:43:26.277Z,6.00
2022-11-01T05:45:55.144Z,8.33
2022-11-01T05:48:22.758Z,9.03
2022-11-01T05:50:50.422Z,8.00
2022-11-01T05:53:17.977Z,9.93
2022-11-01T05:55:45.760Z,9.43
2022-11-01T05:58:13.361Z,8.37
2022-11-01T06:00:41.046Z,10.03
2022-11-01T06:03:10.022Z,4.30
2022-11-01T06:05:38.926Z,10.87
2022-11-01T06:08:07.175Z,8.03
2022-11-01T06:10:35.280Z,9.57
2022-11-01T06:13:03.208Z,6.90
2022-11-01T06:15:34.256Z,6.43
2022-11-01T06:18:05.724Z,8.37
2022-11-01T06:20:36.856Z,8.03
2022-11-01T06:23:09.493Z,5.63
2022-11-01T06:25:37.573Z,9.73
2022-11-01T06:28:05.334Z,8.70
2022-11-01T06:30:32.997Z,7.27
2022-11-01T06:33:02.072Z,7.30
2022-11-01T06:35:30.124Z,8.23
2022-11-01T06:38:03.777Z,6.07
2022-11-01T06:40:31.362Z,6.67
2022-11-01T06:43:01.325Z,9.40
2022-11-01T06:45:29.383Z,10.13
2022-11-01T06:47:57.180Z,6.30
2022-11-01T06:50:25.212Z,7.33
2022-11-01T06:52:52.929Z,5.87
2022-11-01T06:55:21.891Z,9.07
2022-11-01T06:57:54.801Z,7.57
2022-11-01T07:00:22.807Z,4.93
2022-11-01T07:02:50.499Z,7.00
2022-11-01T07:05:18.083Z,6.33
2022-11-01T07:07:45.724Z,11.57
2022-11-01T07:10:13.393Z,9.03
2022-11-01T07:12:42.306Z,7.37
2022-11-01T07:15:10.866Z,5.87
2022-11-01T07:17:38.500Z,5.47
2022-11-01T07:20:06.992Z,7.03
2022-11-01T07:22:34.579Z,6.97
2022-11-01T07:25:02.145Z,8.57
2022-11-01T07:27:29.710Z,6.27
2022-11-01T07:29:58.645Z,5.07
2022-11-01T07:32:26.494Z,6.23
2022-11-01T07:34:54.109Z,6.87
2022-11-01T07:37:21.679Z,6.87
2022-11-01T07:39:49.323Z,8.93
2022-11-01T07:42:16.936Z,6.97
2022-11-01T07:44:45.732Z,5.60
2022-11-01T07:47:14.720Z,8.27
2022-11-01T07:49:42.313Z,7.43
2022-11-01T07:52:12.218Z,9.23
2022-11-01T07:54:39.812Z,5.47
2022-11-01T07:57:07.546Z,9.70
2022-11-01T07:59:35.103Z,7.00
2022-11-01T08:02:05.498Z,7.43
2022-11-01T08:04:37.045Z,10.13
2022-11-01T08:07:04.627Z,7.40
2022-11-01T08:09:32.189Z,7.27
2022-11-01T08:12:01.058Z,9.30
2022-11-01T08:14:28.625Z,5.40
2022-11-01T08:17:00.666Z,6.90
2022-11-01T08:19:28.282Z,6.13
2022-11-01T08:21:59.642Z,4.63
2022-11-01T08:24:27.602Z,7.17
2022-11-01T08:26:55.523Z,7.37
2022-11-01T08:29:23.105Z,5.33
2022-11-01T08:31:50.652Z,10.57
2022-11-01T08:34:18.314Z,6.60
2022-11-01T08:36:45.822Z,9.57
2022-11-01T08:39:14.918Z,6.27
2022-11-01T08:41:42.506Z,5.37
2022-11-01T08:44:10.130Z,7.00
2022-11-01T08:46:37.794Z,5.83
2022-11-01T08:49:05.424Z,7.30
2022-11-01T08:51:33.137Z,5.73
2022-11-01T08:54:00.797Z,4.27
2022-11-01T08:56:30.174Z,5.37
2022-11-01T08:58:58.758Z,5.93
2022-11-01T09:01:27.658Z,7.20
2022-11-01T09:03:57.042Z,6.00
2022-11-01T09:06:24.978Z,4.33
2022-11-01T09:08:53.482Z,3.13
2022-11-01T09:11:21.398Z,2.60
2022-11-01T09:13:50.785Z,5.77
2022-11-01T09:16:18.608Z,2.00
2022-11-01T09:18:46.373Z,3.37
2022-11-01T09:21:14.012Z,2.80
2022-11-01T09:23:41.715Z,2.33
2022-11-01T09:26:10.997Z,2.53
2022-11-01T09:28:38.909Z,4.73
2022-11-01T09:31:20.196Z,2.90
2022-11-01T09:33:48.479Z,3.13
2022-11-01T09:36:16.135Z,2.10
2022-11-01T09:38:43.898Z,3.47
2022-11-01T09:41:17.724Z,2.30
2022-11-01T09:43:46.931Z,5.50
2022-11-01T09:46:17.923Z,4.40
2022-11-01T09:48:46.405Z,3.33
2022-11-01T09:51:22.521Z,2.03
2022-11-01T09:53:51.122Z,1.70
2022-11-01T09:56:23.006Z,3.60
2022-11-01T09:58:58.998Z,5.87
2022-11-01T10:01:56.768Z,1.73
2022-11-01T10:04:39.171Z,2.00
2022-11-01T10:07:09.397Z,2.60
2022-11-01T10:09:44.807Z,3.60
2022-11-01T10:12:31.174Z,1.73
2022-11-01T10:15:18.025Z,2.80
2022-11-01T10:18:02.029Z,4.87
2022-11-01T10:20:33.528Z,2.40
2022-11-01T10:23:02.101Z,1.87
2022-11-01T10:25:33.152Z,2.97
2022-11-01T10:28:06.225Z,3.53
2022-11-01T10:30:37.643Z,6.03
2022-11-01T10:33:23.168Z,1.30
2022-11-01T10:35:53.079Z,3.53
2022-11-01T10:38:41.915Z,2.77
2022-11-01T10:41:23.153Z,3.93
2022-11-01T10:43:53.306Z,3.97
2022-11-01T10:46:24.062Z,2.20
2022-11-01T10:48:54.403Z,4.20
2022-11-01T10:51:27.859Z,2.00
2022-11-01T10:53:58.623Z,1.80
2022-11-01T10:56:29.974Z,2.77
2022-11-01T10:59:01.965Z,3.80
2022-11-01T11:01:33.440Z,3.37
2022-11-01T11:04:04.665Z,1.57
2022-11-01T11:06:33.638Z,2.93
2022-11-01T11:09:02.878Z,3.90
2022-11-01T11:11:35.391Z,5.57
2022-11-01T11:14:06.656Z,5.80
2022-11-01T11:16:37.559Z,2.97
2022-11-01T11:19:19.401Z,2.77
2022-11-01T11:21:48.867Z,3.27
2022-11-01T11:24:19.519Z,4.77
2022-11-01T11:26:52.878Z,2.23
2022-11-01T11:29:33.834Z,3.60
2022-11-01T11:32:01.734Z,7.50
2022-11-01T11:34:31.877Z,4.10
2022-11-01T11:36:59.871Z,4.47
2022-11-01T11:39:29.566Z,6.70
2022-11-01T11:42:11.305Z,3.53
2022-11-01T11:44:41.339Z,3.53
2022-11-01T11:47:19.016Z,4.20
2022-11-01T11:49:49.998Z,3.67
2022-11-01T11:52:19.292Z,2.90
2022-11-01T11:54:47.630Z,3.83
2022-11-01T11:57:19.450Z,3.37
2022-11-01T11:59:50.991Z,5.30
2022-11-01T12:02:22.293Z,10.53
2022-11-01T12:04:57.573Z,4.23
2022-11-01T12:07:28.690Z,4.03
2022-11-01T12:09:57.312Z,4.33
2022-11-01T12:12:27.560Z,3.87
2022-11-01T12:14:57.005Z,3.70
2022-11-01T12:17:32.877Z,7.00
2022-11-01T12:20:05.042Z,2.53
2022-11-01T12:22:34.425Z,3.77
2022-11-01T12:25:05.680Z,2.07
2022-11-01T12:27:36.054Z,4.50
2022-11-01T12:30:08.521Z,2.83
2022-11-01T12:32:41.073Z,2.53
2022-11-01T12:35:19.465Z,2.43
2022-11-01T12:37:52.978Z,6.43
2022-11-01T12:40:24.344Z,4.00
2022-11-01T12:42:54.837Z,2.90
2022-11-01T12:45:26.265Z,3.57
2022-11-01T12:47:57.008Z,2.60
2022-11-01T12:50:30.144Z,1.63
2022-11-01T12:53:00.890Z,3.40
2022-11-01T12:55:32.449Z,2.37
2022-11-01T12:58:00.212Z,2.73
2022-11-01T13:00:32.510Z,2.63
2022-11-01T13:03:10.425Z,3.47
2022-11-01T13:05:48.359Z,3.37
2022-11-01T13:08:22.566Z,4.47
2022-11-01T13:10:50.335Z,3.03
2022-11-01T13:13:22.534Z,2.30
2022-11-01T13:15:57.679Z,5.83
2022-11-01T13:18:34.325Z,3.10
2022-11-01T13:21:09.679Z,4.17
2022-11-01T13:23:39.035Z,2.50
2022-11-01T13:26:12.757Z,5.47
2022-11-01T13:28:49.667Z,2.63
2022-11-01T13:31:27.618Z,3.73
2022-11-01T13:34:01.123Z,2.00
2022-11-01T13:36:34.106Z,3.50
2022-11-01T13:39:07.402Z,3.70
2022-11-01T13:41:39.293Z,2.40
2022-11-01T13:44:10.580Z,3.47
2022-11-01T13:46:49.828Z,3.20
2022-11-01T13:49:34.624Z,3.57
2022-11-01T13:52:07.009Z,3.77
2022-11-01T13:54:39.183Z,6.43
2022-11-01T13:57:12.481Z,3.87
2022-11-01T13:59:45.830Z,5.90
2022-11-01T14:02:57.063Z,3.43
2022-11-01T14:05:37.695Z,7.17
2022-11-01T14:08:30.543Z,4.73
2022-11-01T14:10:58.239Z,4.83
2022-11-01T14:13:35.275Z,4.20
2022-11-01T14:16:22.479Z,3.50
2022-11-01T14:19:16.056Z,5.20
2022-11-01T14:21:48.661Z,4.57
2022-11-01T14:24:35.218Z,4.50
2022-11-01T14:27:24.304Z,4.43
2022-11-01T14:29:53.253Z,3.83
2022-11-01T14:32:23.397Z,6.60
2022-11-01T14:35:01.352Z,6.87
2022-11-01T14:37:31.373Z,6.80
2022-11-01T14:40:21.562Z,6.77
2022-11-01T14:42:49.946Z,7.83
2022-11-01T14:45:27.660Z,9.00
2022-11-01T14:47:58.467Z,3.70
2022-11-01T14:50:30.909Z,6.43
2022-11-01T14:53:02.019Z,8.37
2022-11-01T14:55:36.391Z,8.17
2022-11-01T14:58:24.983Z,9.10
2022-11-01T15:00:54.663Z,6.20
2022-11-01T15:03:23.120Z,9.03
2022-11-01T15:05:52.135Z,7.50
2022-11-01T15:08:30.883Z,6.70
2022-11-01T15:11:02.560Z,6.43
2022-11-01T15:13:32.264Z,6.23
2022-11-01T15:16:03.994Z,7.97
2022-11-01T15:18:32.691Z,8.90
2022-11-01T15:21:01.166Z,6.77
2022-11-01T15:23:34.494Z,9.40
2022-11-01T15:26:08.203Z,5.63
2022-11-01T15:28:38.774Z,7.80
2022-11-01T15:31:07.428Z,6.40
2022-11-01T15:33:35.091Z,6.70
2022-11-01T15:36:05.297Z,8.27
2022-11-01T15:38:35.925Z,5.40
2022-11-01T15:41:27.670Z,9.77
2022-11-01T15:43:56.887Z,7.87
2022-11-01T15:46:27.337Z,8.43
2022-11-01T15:48:57.763Z,5.27
2022-11-01T15:51:27.556Z,5.67
2022-11-01T15:54:02.152Z,8.80
2022-11-01T15:56:44.131Z,8.00
2022-11-01T15:59:19.903Z,8.33
2022-11-01T16:01:49.343Z,14.13
2022-11-01T16:04:19.701Z,10.37
2022-11-01T16:06:51.284Z,7.07
2022-11-01T16:09:29.402Z,8.83
2022-11-01T16:11:59.264Z,10.83
2022-11-01T16:14:32.463Z,8.47
2022-11-01T16:17:06.276Z,10.07
2022-11-01T16:19:38.194Z,7.80
2022-11-01T16:22:26.984Z,8.90
2022-11-01T16:25:02.486Z,8.80
2022-11-01T16:27:31.532Z,6.17
2022-11-01T16:30:00.122Z,6.20
2022-11-01T16:32:30.548Z,12.83
2022-11-01T16:35:00.130Z,5.83
2022-11-01T16:37:30.513Z,7.00
2022-11-01T16:39:59.127Z,4.80
2022-11-01T16:42:27.256Z,9.30
2022-11-01T16:44:57.230Z,10.17
2022-11-01T16:47:24.959Z,6.80
2022-11-01T16:50:17.695Z,13.63
2022-11-01T16:52:45.266Z,8.53
2022-11-01T16:55:14.105Z,9.73
2022-11-01T16:57:41.956Z,6.90
2022-11-01T17:00:14.122Z,9.13
2022-11-01T17:02:44.064Z,6.53
2022-11-01T17:05:19.622Z,10.27
2022-11-01T17:07:47.461Z,7.30
2022-11-01T17:10:17.912Z,7.60
2022-11-01T17:12:45.580Z,10.30
2022-11-01T17:15:15.411Z,7.50
2022-11-01T17:17:44.661Z,9.10
2022-11-01T17:20:15.485Z,11.07
2022-11-01T17:22:43.762Z,13.00
2022-11-01T17:25:15.964Z,9.60
2022-11-01T17:27:43.897Z,8.23
2022-11-01T17:30:12.789Z,8.07
2022-11-01T17:32:41.723Z,7.50
2022-11-01T17:35:09.564Z,11.13
2022-11-01T17:37:37.390Z,7.67
2022-11-01T17:40:05.371Z,7.37
2022-11-01T17:42:32.928Z,6.30
2022-11-01T17:45:00.643Z,7.17
2022-11-01T17:47:28.463Z,3.70
2022-11-01T17:49:57.427Z,8.40
2022-11-01T17:52:24.976Z,9.87
2022-11-01T17:54:52.566Z,9.57
2022-11-01T17:57:20.156Z,6.40
2022-11-01T17:59:48.308Z,7.83
2022-11-01T18:02:16.013Z,12.70
2022-11-01T18:04:43.766Z,8.40
2022-11-01T18:07:13.280Z,7.97
2022-11-01T18:09:41.003Z,11.00
2022-11-01T18:12:12.130Z,11.37
2022-11-01T18:17:33.059Z,6.93
2022-11-01T18:20:06.210Z,8.17
2022-11-01T18:22:40.303Z,7.53
2022-11-01T18:25:22.056Z,7.80
2022-11-01T18:27:49.633Z,7.80
2022-11-01T18:30:19.058Z,6.10
2022-11-01T18:32:52.063Z,9.07
2022-11-01T18:35:30.874Z,5.93
2022-11-01T18:38:13.403Z,6.83
2022-11-01T18:40:48.472Z,8.83
2022-11-01T18:43:16.499Z,6.10
2022-11-01T18:46:04.438Z,7.27
2022-11-01T18:48:31.652Z,7.20
2022-11-01T18:51:05.164Z,5.67
2022-11-01T18:53:35.090Z,6.90
2022-11-01T18:56:16.967Z,4.20
2022-11-01T18:58:44.625Z,8.77
2022-11-01T19:01:13.974Z,6.70
2022-11-01T19:03:42.271Z,7.83
2022-11-01T19:06:16.743Z,7.83
2022-11-01T19:08:47.302Z,6.67
2022-11-01T19:11:14.899Z,7.07
2022-11-01T19:13:42.598Z,9.23
2022-11-01T19:16:12.201Z,9.70
2022-11-01T19:18:43.320Z,6.50
2022-11-01T19:21:15.897Z,9.43
2022-11-01T19:23:47.913Z,6.07
2022-11-01T19:26:22.085Z,6.83
2022-11-01T19:28:52.380Z,6.40
2022-11-01T19:31:26.614Z,6.40
2022-11-01T19:33:56.504Z,6.97
2022-11-01T19:36:26.374Z,9.03
2022-11-01T19:38:55.263Z,7.70
2022-11-01T19:41:28.631Z,7.97
2022-11-01T19:43:57.619Z,7.20
2022-11-01T19:46:25.162Z,8.17
2022-11-01T19:48:53.322Z,11.10
2022-11-01T19:51:24.128Z,9.30
2022-11-01T19:53:52.516Z,6.90
2022-11-01T19:56:22.818Z,7.53
2022-11-01T19:58:52.131Z,8.33
2022-11-01T20:01:33.351Z,11.07
2022-11-01T20:04:02.337Z,5.07
2022-11-01T20:06:33.292Z,9.43
2022-11-01T20:09:04.115Z,4.87
2022-11-01T20:11:33.829Z,11.23
2022-11-01T20:14:01.812Z,7.57
2022-11-01T20:16:29.456Z,6.27
2022-11-01T20:18:56.982Z,7.93
2022-11-01T20:21:24.740Z,5.53
2022-11-01T20:23:52.329Z,5.80
2022-11-01T20:26:19.946Z,8.93
2022-11-01T20:28:49.036Z,6.57
2022-11-01T20:31:16.812Z,7.70
2022-11-01T20:33:46.491Z,7.03
2022-11-01T20:36:14.611Z,4.93
2022-11-01T20:38:42.536Z,7.30
2022-11-01T20:41:10.143Z,5.93
2022-11-01T20:43:37.679Z,6.90
2022-11-01T20:46:06.804Z,9.17
2022-11-01T20:48:34.410Z,8.27
2022-11-01T20:51:01.997Z,8.77
2022-11-01T20:53:30.060Z,12.90
2022-11-01T20:55:57.978Z,6.50
2022-11-01T20:58:25.859Z,12.43
2022-11-01T21:00:53.533Z,6.13
2022-11-01T21:03:24.391Z,8.00
2022-11-01T21:05:52.775Z,5.93
2022-11-01T21:08:23.911Z,9.07
2022-11-01T21:10:56.577Z,7.90
2022-11-01T21:13:26.480Z,10.40
2022-11-01T21:15:55.354Z,6.73
2022-11-01T21:18:32.670Z,10.77
2022-11-01T21:21:09.845Z,8.03
2022-11-01T21:23:39.487Z,6.30
2022-11-01T21:26:12.523Z,9.70
2022-11-01T21:28:43.518Z,9.57
2022-11-01T21:31:24.946Z,9.67
2022-11-01T21:33:56.416Z,7.47
2022-11-01T21:36:29.840Z,6.30
2022-11-01T21:38:59.471Z,5.07
2022-11-01T21:41:34.081Z,8.33
2022-11-01T21:44:22.384Z,3.60
2022-11-01T21:46:51.872Z,4.23
2022-11-01T21:49:29.309Z,6.10
2022-11-01T21:52:00.267Z,6.93
2022-11-01T21:54:29.121Z,10.00
2022-11-01T21:56:57.390Z,6.93
2022-11-01T21:59:25.367Z,10.00
2022-11-01T22:01:53.210Z,6.40
2022-11-01T22:04:24.729Z,9.43
2022-11-01T22:06:57.284Z,6.93
2022-11-01T22:09:25.382Z,7.23
2022-11-01T22:11:53.145Z,9.03
2022-11-01T22:14:21.118Z,6.53
2022-11-01T22:16:48.884Z,10.03
2022-11-01T22:19:16.688Z,10.83
2022-11-01T22:24:13.560Z,17.40
2022-11-01T22:26:41.170Z,13.37
2022-11-01T22:29:08.813Z,9.73
2022-11-01T22:31:36.709Z,6.97
2022-11-01T22:34:04.563Z,8.20
2022-11-01T22:36:35.940Z,7.20
2022-11-01T22:39:11.647Z,6.93
2022-11-01T22:41:41.581Z,6.30
2022-11-01T22:44:13.633Z,8.67
2022-11-01T22:46:46.834Z,5.93
2022-11-01T22:49:18.330Z,6.90
2022-11-01T22:51:47.516Z,7.63
2022-11-01T22:54:31.125Z,10.77
2022-11-01T22:57:02.744Z,8.00
2022-11-01T22:59:33.493Z,10.00
2022-11-01T23:02:16.924Z,7.97
2022-11-01T23:04:44.727Z,10.27
2022-11-01T23:07:27.185Z,12.27
2022-11-01T23:09:55.342Z,9.57
2022-11-01T23:12:48.127Z,8.20
2022-11-01T23:15:27.638Z,6.07
2022-11-01T23:17:56.282Z,10.60
2022-11-01T23:20:24.086Z,8.80
2022-11-01T23:22:51.789Z,7.63
2022-11-01T23:25:19.505Z,5.43
2022-11-01T23:27:48.678Z,6.90
2022-11-01T23:30:17.087Z,4.73
2022-11-01T23:32:44.880Z,4.17
2022-11-01T23:35:15.819Z,7.33
2022-11-01T23:37:44.274Z,10.13
2022-11-01T23:40:16.690Z,12.00
2022-11-01T23:42:44.387Z,7.23
2022-11-01T23:45:26.260Z,8.07
2022-11-01T23:47:53.894Z,7.97
2022-11-01T23:50:23.724Z,7.07
2022-11-01T23:52:54.574Z,9.53
2022-11-01T23:55:25.869Z,5.53
2022-11-01T23:57:54.663Z,7.17
